Thursday, November 23, 2017, 7:20 PM EST
Back to Local

KNUI, Knui Webster Field Annex

Location: Saint Inigoes, MD, United States Lat: 38.15
Local Time: 7:20 PM EST ( 0:20 GMT) Lon: -76.417
Time Zone: US/Eastern Elev: 19 ft

Show me the last for .
Show Coded

Time T Td Feel RH Dir Speed Gust Alt SLP Vis Weather Sky Remarks
2017-11-23 18:53 33 26 - 75 - Calm - 30.08 30.07 10 CLR 6-hr Min Temp (7pm): 32.0°F
6-hr Max Temp (7pm): 44.1°F
2017-11-23 17:53 35 28 - 75 - Calm - 30.07 30.07 10 CLR None
2017-11-23 16:53 41 26 38 54 260° 5 - 30.08 30.07 10 CLR None
2017-11-23 15:53 43 26 39 50 280° 7 - 30.08 30.07 10 CLR None
2017-11-23 14:53 43 25 38 48 280° 9 - 30.09 30.08 10 CLR None
2017-11-23 13:53 42 26 38 52 Variable 6 - 30.09 30.09 10 CLR None
2017-11-23 12:53 41 25 37 52 250° 6 - 30.12 30.11 10 CLR 6-hr Min Temp (1pm): 34.0°F
6-hr Max Temp (1pm): 42.1°F
2017-11-23 11:53 40 23 36 50 280° 6 - 30.14 30.14 10 CLR None
2017-11-23 10:53 40 23 36 50 320° 6 - 30.17 30.16 10 CLR None
2017-11-23 09:53 40 24 37 52 Variable 5 - 30.19 30.19 10 CLR None
2017-11-23 08:53 39 25 33 56 330° 8 - 30.19 30.19 10 CLR None
2017-11-23 07:53 36 26 31 66 310° 6 - 30.20 30.20 10 CLR None
2017-11-23 06:53 34 25 31 69 Variable 3 - 30.17 30.17 10 CLR 24-hr Precip Total (7am): 0.01"
6-hr Min Temp (7am): 34.0°F
6-hr Max Temp (7am): 37.0°F
2017-11-23 05:53 34 26 30 72 300° 5 - 30.16 30.16 10 CLR None
2017-11-23 04:53 35 26 32 69 Variable 3 - 30.16 30.15 10 CLR None
2017-11-23 03:53 35 26 30 69 310° 6 - 30.16 30.16 10 CLR None
2017-11-23 02:53 35 26 30 69 290° 6 - 30.17 30.17 10 CLR None
2017-11-23 01:53 36 27 30 69 290° 7 - 30.16 30.16 10 CLR None
2017-11-23 00:53 37 27 32 66 300° 6 - 30.16 30.16 10 CLR 6-hr Min Temp (1am): 37.0°F
6-hr Max Temp (1am): 46.9°F
2017-11-22 23:53 39 27 37 61 280° 3 - 30.17 30.16 10 CLR 24-hr Min Temp (12am): 39.0°F
24-hr Max Temp (12am): 60.1°F
2017-11-22 22:53 40 27 35 59 Variable 7 - 30.17 30.17 10 CLR None
2017-11-22 20:53 43 27 39 52 290° 6 - 30.15 30.15 10 CLR None
2017-11-22 19:53 44 27 36 50 310° 9 18 30.12 30.11 10 CLR None

Support USWX by starting your Amazon purchase here.